Time;durP1;ratioP1;P1;durP2;ratioP2;P2;SDS_P1;SDS_P2;PMS_P1;PMS_P2;Temp;Humidity;BMP_temperature;BMP_pressure;BME280_temperature;BME280_humidity;BME280_pressure;Samples;Min_cycle;Max_cycle;Signal;HPM_P1;HPM_P2
2022/08/05 00:03:08;;;;;;;;;;;;;;;21.81;83.97;100735.06;10099798;29;19940;-70
2022/08/05 00:08:19;;;;;;;;;;;;;;;21.75;83.67;100737.03;10099734;29;20044;-67
2022/08/05 00:13:38;;;;;;;;;;;;;;;21.74;84.53;100739.75;10099344;29;20015;-68
2022/08/05 00:18:47;;;;;;;;;;;;;;;21.67;85.05;100739.19;10099725;29;19938;-68
2022/08/05 00:23:51;;;;;;;;;;;;;;;21.65;85.64;100740.22;10099111;29;19967;-67
2022/08/05 00:28:55;;;;;;;;;;;;;;;21.64;86.41;100746.44;10099669;29;19928;-70
2022/08/05 00:33:59;;;;;;;;;;;;;;;21.64;86.51;100739.34;10099212;29;19928;-68
2022/08/05 00:39:23;;;;;;;;;;;;;;;21.63;86.82;100742.06;10098828;29;19927;-74
2022/08/05 00:44:26;;;;;;;;;;;;;;;21.56;86.96;100736.22;10100564;29;19935;-73
2022/08/05 00:49:33;;;;;;;;;;;;;;;21.52;87.26;100734.66;10101518;29;19957;-71
2022/08/05 00:54:54;;;;;;;;;;;;;;;21.45;86.79;100741.19;10101235;29;19938;-73
2022/08/05 00:59:58;;;;;;;;;;;;;;;21.31;86.40;100724.31;10101195;29;19927;-71
2022/08/05 01:05:01;;;;;;;;;;;;;;;21.26;87.06;100728.94;10101197;29;19994;-72
2022/08/05 01:10:13;;;;;;;;;;;;;;;21.31;86.52;100724.31;10100856;29;19928;-73
2022/08/05 01:15:17;;;;;;;;;;;;;;;21.24;86.66;100720.25;10100782;29;19934;-71
2022/08/05 01:20:45;;;;;;;;;;;;;;;21.22;87.12;100724.72;10100614;29;20350;-70
2022/08/05 01:26:00;;;;;;;;;;;;;;;21.11;86.72;100714.69;10100389;29;19928;-73
2022/08/05 01:31:09;;;;;;;;;;;;;;;21.05;86.73;100715.00;10100520;29;20258;-70
2022/08/05 01:36:15;;;;;;;;;;;;;;;20.98;86.99;100713.56;10100278;29;19928;-71
2022/08/05 01:41:21;;;;;;;;;;;;;;;21.02;87.80;100706.34;10099814;29;20358;-69
2022/08/05 01:46:30;;;;;;;;;;;;;;;20.94;88.44;100711.09;10099930;29;20377;-69
2022/08/05 01:51:48;;;;;;;;;;;;;;;20.90;88.23;100709.53;10100021;29;19927;-70
2022/08/05 01:56:56;;;;;;;;;;;;;;;20.84;89.13;100713.31;10100036;29;20283;-68
2022/08/05 02:02:21;;;;;;;;;;;;;;;20.84;89.62;100702.75;10099809;29;19927;-70
2022/08/05 02:07:31;;;;;;;;;;;;;;;20.81;89.81;100702.91;10099908;29;19931;-69
2022/08/05 02:12:38;;;;;;;;;;;;;;;20.73;90.65;100698.88;10099870;29;19942;-68
2022/08/05 02:17:48;;;;;;;;;;;;;;;20.73;89.49;100685.69;10099706;29;19928;-68
2022/08/05 02:23:11;;;;;;;;;;;;;;;20.64;90.48;100690.47;10099526;29;19928;-68
2022/08/05 02:28:19;;;;;;;;;;;;;;;20.66;90.47;100682.50;10099549;29;19927;-73
2022/08/05 02:33:36;;;;;;;;;;;;;;;20.56;91.51;100689.97;10099429;29;19936;-68
2022/08/05 02:38:42;;;;;;;;;;;;;;;20.59;91.40;100679.28;10104089;29;19980;-69
2022/08/05 02:43:56;;;;;;;;;;;;;;;20.58;92.42;100684.63;10106156;29;19928;-69
2022/08/05 02:49:10;;;;;;;;;;;;;;;20.51;92.63;100680.56;10105758;29;19935;-66
2022/08/05 02:54:14;;;;;;;;;;;;;;;20.50;92.57;100671.78;10106046;29;20243;-71
2022/08/05 02:59:37;;;;;;;;;;;;;;;20.44;93.19;100672.06;10105333;29;20135;-70
2022/08/05 03:04:54;;;;;;;;;;;;;;;20.49;93.09;100664.81;10105556;29;19928;-69
2022/08/05 03:09:57;;;;;;;;;;;;;;;20.43;93.77;100675.63;10104898;29;19928;-69
2022/08/05 03:15:00;;;;;;;;;;;;;;;20.44;93.47;100669.44;10105321;29;19932;-70
2022/08/05 03:20:06;;;;;;;;;;;;;;;20.46;93.55;100659.69;10104867;29;19955;-69
2022/08/05 03:25:12;;;;;;;;;;;;;;;20.41;94.31;100653.75;10104430;29;19928;-68
2022/08/05 03:30:36;;;;;;;;;;;;;;;20.38;95.68;100660.97;10104425;29;19938;-69
2022/08/05 03:35:41;;;;;;;;;;;;;;;20.35;96.57;100659.31;10104195;29;19928;-70
2022/08/05 03:40:45;;;;;;;;;;;;;;;20.38;96.30;100650.41;10103979;29;19940;-68
2022/08/05 03:45:51;;;;;;;;;;;;;;;20.42;96.71;100646.69;10103666;29;19936;-68
2022/08/05 03:51:07;;;;;;;;;;;;;;;20.42;96.61;100657.25;10102583;29;20350;-70
2022/08/05 03:56:33;;;;;;;;;;;;;;;20.38;97.75;100645.97;10103431;29;20269;-70
2022/08/05 04:01:39;;;;;;;;;;;;;;;20.44;97.49;100653.63;10103034;29;19964;-72
2022/08/05 04:06:48;;;;;;;;;;;;;;;20.45;98.33;100652.69;10102927;29;19970;-71
2022/08/05 04:11:53;;;;;;;;;;;;;;;20.45;98.46;100651.81;10102788;29;19936;-74
2022/08/05 04:16:59;;;;;;;;;;;;;;;20.48;98.74;100646.44;10102694;29;20246;-72
2022/08/05 04:22:06;;;;;;;;;;;;;;;20.48;99.90;100652.53;10102371;29;19932;-68
2022/08/05 04:27:14;;;;;;;;;;;;;;;20.52;99.87;100658.53;10102147;29;20346;-69
2022/08/05 04:32:17;;;;;;;;;;;;;;;20.62;99.68;100659.84;10102474;29;19934;-69
2022/08/05 04:37:34;;;;;;;;;;;;;;;20.70;99.63;100657.69;10102091;29;19927;-74
2022/08/05 04:42:57;;;;;;;;;;;;;;;20.75;100.00;100652.19;10101637;29;19928;-71
2022/08/05 04:48:04;;;;;;;;;;;;;;;20.79;100.00;100649.34;10101779;29;19927;-71
2022/08/05 04:53:09;;;;;;;;;;;;;;;20.81;100.00;100651.91;10101484;29;19928;-75
2022/08/05 04:58:12;;;;;;;;;;;;;;;20.89;100.00;100644.47;10101306;29;20380;-73
2022/08/05 05:03:23;;;;;;;;;;;;;;;20.90;100.00;100651.47;10101169;29;19938;-71
2022/08/05 05:08:27;;;;;;;;;;;;;;;20.97;100.00;100656.38;10100937;29;20254;-71
2022/08/05 05:13:32;;;;;;;;;;;;;;;21.00;99.84;100658.88;10100812;29;20349;-72
2022/08/05 05:18:45;;;;;;;;;;;;;;;21.09;99.86;100654.97;10100481;29;19931;-69
2022/08/05 05:24:09;;;;;;;;;;;;;;;21.14;99.99;100659.09;10100389;29;20257;-72
2022/08/05 05:29:12;;;;;;;;;;;;;;;21.23;100.00;100665.69;10100344;29;20019;-69
2022/08/05 05:34:16;;;;;;;;;;;;;;;21.28;100.00;100674.25;10100328;29;19928;-70
2022/08/05 05:39:29;;;;;;;;;;;;;;;21.32;100.00;100671.41;10100204;29;19938;-73
2022/08/05 05:44:37;;;;;;;;;;;;;;;21.40;100.00;100678.94;10099943;29;20273;-70
2022/08/05 05:49:47;;;;;;;;;;;;;;;21.48;100.00;100675.00;10099910;29;19935;-70
2022/08/05 05:55:00;;;;;;;;;;;;;;;21.57;100.00;100669.25;10099696;29;19927;-70
2022/08/05 06:00:10;;;;;;;;;;;;;;;21.67;100.00;100669.66;10099754;29;19928;-69
2022/08/05 06:05:14;;;;;;;;;;;;;;;21.78;100.00;100667.34;10099633;29;19927;-70
2022/08/05 06:10:20;;;;;;;;;;;;;;;21.87;100.00;100672.16;10096433;29;19927;-71
2022/08/05 06:15:25;;;;;;;;;;;;;;;21.98;100.00;100659.25;10106701;29;19932;-72
2022/08/05 06:20:48;;;;;;;;;;;;;;;22.09;99.95;100659.53;10106458;29;19928;-71
2022/08/05 06:25:57;;;;;;;;;;;;;;;22.17;99.53;100662.66;10106815;29;20247;-73
2022/08/05 06:31:20;;;;;;;;;;;;;;;22.29;98.33;100669.06;10104453;29;19960;-72
2022/08/05 06:36:24;;;;;;;;;;;;;;;22.38;96.94;100652.72;10106859;29;20337;-72
2022/08/05 06:41:29;;;;;;;;;;;;;;;22.47;96.08;100657.47;10105630;29;19955;-72
2022/08/05 06:46:36;;;;;;;;;;;;;;;22.56;95.48;100651.72;10105940;29;20002;-70
2022/08/05 06:51:39;;;;;;;;;;;;;;;22.64;95.02;100653.03;10105882;29;19938;-70
2022/08/05 06:56:44;;;;;;;;;;;;;;;22.74;94.71;100651.56;10105627;29;20015;-69
2022/08/05 07:02:07;;;;;;;;;;;;;;;22.84;94.38;100646.63;10105416;29;19934;-71
2022/08/05 07:07:10;;;;;;;;;;;;;;;22.90;94.61;100639.19;10104842;29;19934;-71
2022/08/05 07:17:35;;;;;;;;;;;;;;;23.09;94.06;100635.53;10104876;29;19987;-70
2022/08/05 07:22:58;;;;;;;;;;;;;;;23.16;93.08;100635.06;10104265;29;19928;-71
2022/08/05 07:28:02;;;;;;;;;;;;;;;23.26;92.81;100627.47;10104430;29;20344;-69
2022/08/05 07:33:13;;;;;;;;;;;;;;;23.34;92.89;100625.25;10103988;29;19950;-66
2022/08/05 07:38:19;;;;;;;;;;;;;;;23.38;93.07;100621.47;10104109;29;19939;-67
2022/08/05 07:43:38;;;;;;;;;;;;;;;23.49;92.22;100624.34;10103498;29;20413;-66
2022/08/05 07:48:44;;;;;;;;;;;;;;;23.55;91.98;100619.56;10103714;29;20006;-65
2022/08/05 07:54:06;;;;;;;;;;;;;;;23.64;91.31;100616.34;10103139;29;19959;-63
2022/08/05 07:59:13;;;;;;;;;;;;;;;23.63;91.16;100614.63;10103139;29;20018;-64
2022/08/05 08:04:16;;;;;;;;;;;;;;;23.81;90.72;100616.19;10102651;29;20373;-64
2022/08/05 08:09:36;;;;;;;;;;;;;;;23.83;90.32;100614.28;10102576;29;19932;-65
2022/08/05 08:14:40;;;;;;;;;;;;;;;23.77;89.90;100613.81;10102229;29;19927;-65
2022/08/05 08:19:48;;;;;;;;;;;;;;;23.81;90.28;100623.28;10102224;29;19938;-64
2022/08/05 08:25:11;;;;;;;;;;;;;;;23.97;89.36;100616.97;10099137;29;19939;-67
2022/08/05 08:30:19;;;;;;;;;;;;;;;24.06;89.00;100606.78;10102131;29;19927;-68
2022/08/05 08:35:35;;;;;;;;;;;;;;;24.24;87.92;100603.84;10100750;29;20015;-70
2022/08/05 08:40:43;;;;;;;;;;;;;;;24.40;85.76;100604.56;10101557;29;19927;-72
2022/08/05 08:45:56;;;;;;;;;;;;;;;24.50;84.18;100605.72;10101178;29;19940;-74
2022/08/05 08:50:59;;;;;;;;;;;;;;;24.60;83.15;100596.22;9763722;29;10000429;-71
2022/08/05 08:56:23;;;;;;;;;;;;;;;24.64;83.08;100592.38;10097697;29;19934;-70
2022/08/05 09:01:31;;;;;;;;;;;;;;;24.75;81.79;100584.63;10097847;29;20354;-72
2022/08/05 09:06:34;;;;;;;;;;;;;;;24.87;81.28;100585.63;10097626;29;19967;-70
2022/08/05 09:11:38;;;;;;;;;;;;;;;24.94;80.32;100576.31;10098000;29;20038;-69
2022/08/05 09:16:58;;;;;;;;;;;;;;;25.17;79.15;100578.31;10097394;29;19932;-69
2022/08/05 09:22:01;;;;;;;;;;;;;;;25.49;77.65;100582.31;10097379;29;19927;-70
2022/08/05 09:27:32;;;;;;;;;;;;;;;25.34;80.27;100571.84;10096714;29;19928;-71
2022/08/05 09:33:00;;;;;;;;;;;;;;;25.53;79.32;100567.03;10096941;29;19928;-69
2022/08/05 09:38:06;;;;;;;;;;;;;;;25.75;77.59;100561.91;10097000;29;19927;-72
2022/08/05 09:43:26;;;;;;;;;;;;;;;25.89;76.87;100559.16;10096897;29;20258;-69
2022/08/05 09:48:44;;;;;;;;;;;;;;;26.05;77.01;100541.19;10101830;29;19927;-70
2022/08/05 09:54:08;;;;;;;;;;;;;;;26.41;75.05;100549.22;10104284;29;19928;-71
2022/08/05 09:59:13;;;;;;;;;;;;;;;26.64;74.33;100542.22;10104288;29;20003;-72
2022/08/05 10:04:20;;;;;;;;;;;;;;;26.89;73.28;100540.31;10104388;29;19934;-72
2022/08/05 10:09:31;;;;;;;;;;;;;;;27.25;71.05;100526.03;10065626;29;19991;-71
2022/08/05 10:14:47;;;;;;;;;;;;;;;27.30;71.40;100530.06;10067690;29;20373;-70
2022/08/05 10:19:52;;;;;;;;;;;;;;;27.53;70.34;100527.44;10103535;29;19927;-71
2022/08/05 10:25:06;;;;;;;;;;;;;;;27.67;70.19;100511.22;10102234;29;19939;-72
2022/08/05 10:30:10;;;;;;;;;;;;;;;27.91;67.92;100504.84;10103195;29;19932;-73
2022/08/05 10:35:35;;;;;;;;;;;;;;;28.20;66.81;100491.81;10102828;29;20286;-71
2022/08/05 10:40:51;;;;;;;;;;;;;;;28.15;66.76;100491.34;9800466;23;10001763;-71
2022/08/05 10:46:00;;;;;;;;;;;;;;;28.40;65.41;100480.41;9416149;29;10000706;-70
2022/08/05 10:51:10;;;;;;;;;;;;;;;28.92;62.89;100480.47;10026102;29;20004;-71
2022/08/05 10:56:25;;;;;;;;;;;;;;;29.12;62.82;100485.03;10036191;29;20031;-71
2022/08/05 11:01:28;;;;;;;;;;;;;;;29.42;62.16;100482.38;10063700;29;20346;-74
2022/08/05 11:07:10;;;;;;;;;;;;;;;29.46;62.36;100474.94;10063023;29;19932;-74
2022/08/05 11:12:41;;;;;;;;;;;;;;;30.03;60.21;100461.00;10063390;29;20081;-72
2022/08/05 11:17:49;;;;;;;;;;;;;;;30.38;58.50;100454.22;10062954;29;19928;-74
2022/08/05 11:23:17;;;;;;;;;;;;;;;30.86;57.98;100448.88;10063367;29;19955;-70
2022/08/05 11:28:41;;;;;;;;;;;;;;;31.12;56.75;100455.34;10062290;29;19935;-74
2022/08/05 11:33:54;;;;;;;;;;;;;;;31.71;53.59;100441.66;10062528;29;20015;-75
2022/08/05 11:39:00;;;;;;;;;;;;;;;31.85;53.43;100432.25;10062181;29;20033;-75
2022/08/05 11:44:05;;;;;;;;;;;;;;;32.28;52.31;100435.13;10061906;29;19928;-74
2022/08/05 11:49:13;;;;;;;;;;;;;;;32.61;51.44;100426.44;10061754;29;19929;-74
2022/08/05 11:54:26;;;;;;;;;;;;;;;32.82;50.04;100434.16;10061995;29;19928;-72
2022/08/05 11:59:36;;;;;;;;;;;;;;;32.96;51.62;100426.44;10062107;29;19983;-78
2022/08/05 12:04:53;;;;;;;;;;;;;;;33.09;52.64;100431.38;10063623;29;20366;-77
2022/08/05 12:10:02;;;;;;;;;;;;;;;33.38;50.72;100426.50;10063287;29;19928;-77
2022/08/05 12:15:18;;;;;;;;;;;;;;;33.77;49.69;100417.00;10064420;29;20003;-72
2022/08/05 12:20:41;;;;;;;;;;;;;;;34.14;49.36;100409.41;10063995;29;19980;-76
2022/08/05 12:25:50;;;;;;;;;;;;;;;34.09;50.24;100405.50;10063680;29;20019;-77
2022/08/05 12:30:56;;;;;;;;;;;;;;;33.88;50.11;100397.84;10063316;29;19963;-74
2022/08/05 12:36:00;;;;;;;;;;;;;;;33.95;49.15;100398.91;10063513;29;19928;-72
2022/08/05 12:41:06;;;;;;;;;;;;;;;34.08;46.78;100391.22;9725250;29;10000167;-75
2022/08/05 12:46:20;;;;;;;;;;;;;;;34.07;47.26;100389.50;10060521;29;19929;-77
2022/08/05 12:51:43;;;;;;;;;;;;;;;34.08;48.13;100383.13;10059487;29;19932;-74
2022/08/05 12:57:06;;;;;;;;;;;;;;;34.13;47.72;100385.31;10059806;29;20028;-77
2022/08/05 13:02:12;;;;;;;;;;;;;;;33.88;47.27;100380.84;10059679;29;19988;-74
2022/08/05 13:07:20;;;;;;;;;;;;;;;33.82;47.16;100376.94;10059204;29;19989;-74
2022/08/05 13:12:43;;;;;;;;;;;;;;;33.81;48.09;100368.03;10059269;29;19932;-73
2022/08/05 13:17:59;;;;;;;;;;;;;;;33.66;48.66;100363.41;10058794;29;19992;-73
2022/08/05 13:23:04;;;;;;;;;;;;;;;33.75;49.52;100365.16;10058837;29;19928;-74
2022/08/05 13:28:09;;;;;;;;;;;;;;;33.80;49.09;100358.25;10058942;29;19928;-76
2022/08/05 13:33:12;;;;;;;;;;;;;;;33.79;48.08;100351.16;10060965;29;19939;-74
2022/08/05 13:38:37;;;;;;;;;;;;;;;33.81;47.21;100351.84;10061646;29;19928;-74
2022/08/05 13:43:44;;;;;;;;;;;;;;;33.76;48.25;100350.66;10061495;29;19928;-74
2022/08/05 13:48:57;;;;;;;;;;;;;;;33.60;49.23;100346.06;10061324;29;20355;-75
2022/08/05 13:54:04;;;;;;;;;;;;;;;33.64;50.09;100342.03;10061577;29;20027;-74
2022/08/05 13:59:16;;;;;;;;;;;;;;;33.79;48.47;100335.00;9823683;29;9999932;-74
2022/08/05 14:09:45;;;;;;;;;;;;;;;33.70;48.41;100333.28;10033143;29;20350;-73
2022/08/05 14:14:48;;;;;;;;;;;;;;;33.70;48.15;100325.22;10057874;29;20231;-76
2022/08/05 14:19:53;;;;;;;;;;;;;;;33.66;47.19;100321.19;10057979;29;19928;-73
2022/08/05 14:25:04;;;;;;;;;;;;;;;33.57;47.76;100315.91;10057750;29;20430;-75
2022/08/05 14:30:24;;;;;;;;;;;;;;;33.51;49.30;100325.50;10057493;29;19952;-74
2022/08/05 14:35:28;;;;;;;;;;;;;;;33.42;49.28;100313.00;10063391;29;19944;-76
2022/08/05 14:40:53;;;;;;;;;;;;;;;33.33;48.83;100311.25;10064162;29;20286;-74
2022/08/05 14:45:56;;;;;;;;;;;;;;;33.29;48.19;100315.28;10064348;29;20015;-74
2022/08/05 14:50:58;;;;;;;;;;;;;;;32.93;48.29;100315.59;10063764;29;19946;-75
2022/08/05 14:56:06;;;;;;;;;;;;;;;32.80;49.23;100316.00;10063804;29;19991;-73
2022/08/05 15:01:09;;;;;;;;;;;;;;;32.81;48.92;100317.66;10063323;29;20018;-75
2022/08/05 15:06:18;;;;;;;;;;;;;;;32.64;48.57;100313.19;10063652;29;19928;-72
2022/08/05 15:11:31;;;;;;;;;;;;;;;32.51;48.97;100312.75;10063083;29;19928;-73
2022/08/05 15:16:54;;;;;;;;;;;;;;;32.33;48.99;100314.56;10063573;29;19960;-73
2022/08/05 15:21:57;;;;;;;;;;;;;;;32.13;49.65;100302.31;10063345;29;19938;-72
2022/08/05 15:27:03;;;;;;;;;;;;;;;31.92;50.31;100299.94;10062025;29;19928;-75
2022/08/05 15:32:10;;;;;;;;;;;;;;;31.73;51.50;100302.72;10090445;29;20302;-75
2022/08/05 15:37:14;;;;;;;;;;;;;;;31.48;51.64;100300.75;10062524;29;19928;-73
2022/08/05 15:42:32;;;;;;;;;;;;;;;31.19;52.97;100300.88;10062546;29;20235;-74
2022/08/05 15:47:56;;;;;;;;;;;;;;;31.05;53.71;100309.41;10062662;29;20378;-75
2022/08/05 15:52:59;;;;;;;;;;;;;;;30.93;54.13;100297.16;10076685;29;19928;-74
2022/08/05 15:58:09;;;;;;;;;;;;;;;30.89;53.54;100293.06;10062540;29;19973;-77
2022/08/05 16:03:18;;;;;;;;;;;;;;;30.63;54.22;100292.84;10061711;29;20028;-72
2022/08/05 16:08:22;;;;;;;;;;;;;;;30.38;54.54;100288.09;10061604;29;20384;-75
2022/08/05 16:13:35;;;;;;;;;;;;;;;30.19;55.49;100292.56;10061666;29;19928;-75
2022/08/05 16:18:38;;;;;;;;;;;;;;;30.06;56.46;100292.03;10061443;29;19987;-73
2022/08/05 16:23:54;;;;;;;;;;;;;;;30.00;56.21;100290.75;10061011;29;20355;-75
2022/08/05 16:29:06;;;;;;;;;;;;;;;29.89;55.87;100282.03;10061174;29;19973;-73
2022/08/05 16:34:10;;;;;;;;;;;;;;;29.76;56.21;100284.09;10035684;29;19928;-74
2022/08/05 16:39:13;;;;;;;;;;;;;;;29.62;56.99;100274.63;10022695;29;19938;-74
2022/08/05 16:44:18;;;;;;;;;;;;;;;29.52;57.37;100279.09;10022296;29;19932;-75
2022/08/05 16:49:26;;;;;;;;;;;;;;;29.37;57.31;100267.13;10021739;29;19937;-77
2022/08/05 16:54:31;;;;;;;;;;;;;;;29.21;58.24;100272.13;10021143;29;20273;-74
2022/08/05 16:59:38;;;;;;;;;;;;;;;29.10;58.89;100270.38;10020794;29;20258;-74
2022/08/05 17:05:01;;;;;;;;;;;;;;;28.92;61.18;100272.00;10021569;29;20272;-74
2022/08/05 17:10:04;;;;;;;;;;;;;;;28.80;61.46;100278.41;10023506;29;20022;-74
2022/08/05 17:15:09;;;;;;;;;;;;;;;28.69;61.43;100278.47;10065468;29;19928;-73
2022/08/05 17:20:21;;;;;;;;;;;;;;;28.58;62.21;100275.88;10059161;29;20024;-73
2022/08/05 17:25:26;;;;;;;;;;;;;;;28.50;61.97;100274.78;10059735;29;19928;-75
2022/08/05 17:30:43;;;;;;;;;;;;;;;28.37;62.96;100277.69;10059518;29;19956;-74
2022/08/05 17:35:54;;;;;;;;;;;;;;;28.27;64.17;100287.41;10058640;29;19932;-74
2022/08/05 17:41:17;;;;;;;;;;;;;;;28.15;66.15;100288.44;10058915;29;19929;-73
2022/08/05 17:46:41;;;;;;;;;;;;;;;28.03;66.50;100293.00;10058845;29;19942;-76
2022/08/05 17:51:44;;;;;;;;;;;;;;;27.92;66.94;100293.03;10058407;29;19936;-76
2022/08/05 17:56:51;;;;;;;;;;;;;;;27.83;66.91;100284.91;10058647;29;19928;-74
2022/08/05 18:01:56;;;;;;;;;;;;;;;27.72;67.36;100285.81;10058554;29;20277;-75
2022/08/05 18:06:59;;;;;;;;;;;;;;;27.63;68.09;100288.38;10059444;29;20354;-74
2022/08/05 18:12:04;;;;;;;;;;;;;;;27.51;69.35;100295.53;10065913;29;20020;-74
2022/08/05 18:17:08;;;;;;;;;;;;;;;27.40;70.07;100297.38;10065757;29;19939;-72
2022/08/05 18:22:31;;;;;;;;;;;;;;;27.28;70.64;100299.19;10065844;29;19939;-76
2022/08/05 18:27:54;;;;;;;;;;;;;;;27.16;71.75;100311.66;10065117;29;19932;-78
2022/08/05 18:33:00;;;;;;;;;;;;;;;27.06;73.06;100301.88;10048957;29;20371;-72
2022/08/05 18:38:03;;;;;;;;;;;;;;;26.97;74.29;100305.25;10026916;29;19939;-72
2022/08/05 18:43:06;;;;;;;;;;;;;;;26.87;74.78;100305.13;10026834;29;19935;-70
2022/08/05 18:48:19;;;;;;;;;;;;;;;26.75;75.75;100311.41;10026708;29;19929;-72
2022/08/05 18:53:33;;;;;;;;;;;;;;;26.66;76.14;100304.06;10025945;29;20024;-73
2022/08/05 18:58:47;;;;;;;;;;;;;;;26.59;76.72;100312.69;10042453;29;19928;-71
2022/08/05 19:03:57;;;;;;;;;;;;;;;26.50;76.80;100311.56;10063585;29;19939;-74
2022/08/05 19:09:00;;;;;;;;;;;;;;;26.42;77.44;100313.94;10063596;29;19932;-74
2022/08/05 19:14:05;;;;;;;;;;;;;;;26.35;77.57;100312.75;10063712;29;19938;-74
2022/08/05 19:19:30;;;;;;;;;;;;;;;26.30;78.24;100314.88;10065008;29;19928;-72
2022/08/05 19:24:33;;;;;;;;;;;;;;;26.20;81.41;100308.56;10075331;29;19955;-74
2022/08/05 19:29:37;;;;;;;;;;;;;;;26.17;80.74;100316.78;10104334;29;19928;-67
2022/08/05 19:34:41;;;;;;;;;;;;;;;26.15;80.70;100316.03;10066008;29;19983;-71
2022/08/05 19:39:57;;;;;;;;;;;;;;;26.04;80.50;100316.84;9727825;29;10000600;-73
2022/08/05 19:45:01;;;;;;;;;;;;;;;26.03;80.02;100306.31;10062504;29;20548;-69
2022/08/05 19:50:09;;;;;;;;;;;;;;;25.99;79.41;100315.44;10044979;29;20023;-70
2022/08/05 19:55:13;;;;;;;;;;;;;;;25.95;79.29;100319.31;10023957;29;19988;-69
2022/08/05 20:00:37;;;;;;;;;;;;;;;25.88;79.31;100320.72;10023654;29;19929;-71
2022/08/05 20:05:41;;;;;;;;;;;;;;;25.82;79.60;100326.47;10024074;29;19928;-70
2022/08/05 20:10:52;;;;;;;;;;;;;;;25.75;80.17;100325.22;10023488;29;19942;-69
2022/08/05 20:15:55;;;;;;;;;;;;;;;25.69;80.94;100318.56;10023298;29;20076;-69
2022/08/05 20:21:01;;;;;;;;;;;;;;;25.64;81.41;100320.72;10022807;29;20023;-75
2022/08/05 20:26:06;;;;;;;;;;;;;;;25.61;81.64;100317.44;10022648;29;20296;-71
2022/08/05 20:31:17;;;;;;;;;;;;;;;25.55;82.29;100325.81;10022191;29;19935;-71
2022/08/05 20:36:31;;;;;;;;;;;;;;;25.46;82.70;100315.84;10022508;29;19936;-71
2022/08/05 20:41:34;;;;;;;;;;;;;;;25.42;83.07;100328.50;10022012;29;19929;-73
2022/08/05 20:46:46;;;;;;;;;;;;;;;25.36;83.47;100323.66;10055346;29;19938;-70
2022/08/05 20:51:51;;;;;;;;;;;;;;;25.32;83.84;100321.28;10059984;29;19936;-74
2022/08/05 20:56:56;;;;;;;;;;;;;;;25.27;84.46;100326.06;10060713;29;19938;-69
2022/08/05 21:01:59;;;;;;;;;;;;;;;25.24;85.09;100329.81;10060005;29;19936;-71
2022/08/05 21:07:03;;;;;;;;;;;;;;;25.20;84.90;100327.44;10059743;29;19932;-70
2022/08/05 21:12:09;;;;;;;;;;;;;;;25.11;87.63;100335.13;10093255;29;19950;-68
2022/08/05 21:17:18;;;;;;;;;;;;;;;25.09;86.85;100337.03;10097844;29;19996;-68
2022/08/05 21:22:24;;;;;;;;;;;;;;;25.04;86.34;100328.53;10098143;29;19928;-65
2022/08/05 21:27:27;;;;;;;;;;;;;;;25.00;86.41;100336.84;10097389;29;19966;-68
2022/08/05 21:32:40;;;;;;;;;;;;;;;24.94;86.34;100339.91;10097372;29;19928;-66
2022/08/05 21:37:45;;;;;;;;;;;;;;;24.84;87.09;100339.72;10093946;29;19940;-69
2022/08/05 21:42:55;;;;;;;;;;;;;;;24.72;87.97;100335.25;10065928;29;19928;-69
2022/08/05 21:48:01;;;;;;;;;;;;;;;24.69;89.36;100334.59;10071431;29;19976;-69
2022/08/05 21:53:11;;;;;;;;;;;;;;;24.68;89.66;100332.84;10071797;29;20494;-71
2022/08/05 21:58:19;;;;;;;;;;;;;;;24.64;89.92;100334.88;10071707;29;19928;-70
2022/08/05 22:03:32;;;;;;;;;;;;;;;24.59;90.26;100334.34;10071074;29;20362;-70
2022/08/05 22:08:56;;;;;;;;;;;;;;;24.53;91.31;100336.56;10071248;29;20003;-71
2022/08/05 22:14:02;;;;;;;;;;;;;;;24.48;91.45;100341.34;10070841;29;19939;-69
2022/08/05 22:19:26;;;;;;;;;;;;;;;24.46;91.81;100337.91;10078874;29;20346;-70
2022/08/05 22:30:25;;;;;;;;;;;;;;;24.41;91.97;100340.91;10070630;29;19951;-68
2022/08/05 22:35:38;;;;;;;;;;;;;;;24.36;91.58;100339.50;10070543;29;20026;-69
2022/08/05 22:40:52;;;;;;;;;;;;;;;24.30;92.54;100340.75;10043606;29;19928;-70
2022/08/05 22:45:57;;;;;;;;;;;;;;;24.32;92.79;100340.66;10032245;29;19929;-70
2022/08/05 22:51:00;;;;;;;;;;;;;;;24.32;93.13;100340.66;10032536;29;20262;-68
2022/08/05 22:56:10;;;;;;;;;;;;;;;24.27;94.14;100340.97;10026668;29;20032;-69
2022/08/05 23:01:15;;;;;;;;;;;;;;;24.24;94.48;100335.00;10029160;29;20316;-70
2022/08/05 23:06:22;;;;;;;;;;;;;;;24.15;94.33;100325.88;10028912;29;20359;-72
2022/08/05 23:11:29;;;;;;;;;;;;;;;24.07;94.77;100333.50;10029103;29;20335;-70
2022/08/05 23:21:53;;;;;;;;;;;;;;;24.02;96.47;100324.13;10028447;29;19928;-70
2022/08/05 23:26:58;;;;;;;;;;;;;;;23.99;97.11;100326.03;10028048;29;19950;-70
2022/08/05 23:32:02;;;;;;;;;;;;;;;23.95;98.38;100321.81;10028000;29;19929;-71
2022/08/05 23:37:05;;;;;;;;;;;;;;;23.95;98.93;100327.13;10027934;29;19938;-71
2022/08/05 23:42:14;;;;;;;;;;;;;;;23.90;99.55;100328.41;10027618;29;20001;-72
2022/08/05 23:47:25;;;;;;;;;;;;;;;23.83;99.92;100340.38;10027861;29;19935;-70
2022/08/05 23:52:33;;;;;;;;;;;;;;;23.80;100.00;100343.19;10027407;29;19932;-68
2022/08/05 23:57:52;;;;;;;;;;;;;;;23.79;100.00;100333.53;10027485;29;20288;-70
